sensor_id;sensor_type;location;lat;lon;timestamp;P1;durP1;ratioP1;P2;durP2;ratioP2
58242;SDS011;50118;53.232;8.252;2022-12-07T00:01:16;16.67;;;7.07;;
58242;SDS011;50118;53.232;8.252;2022-12-07T00:03:43;19.23;;;6.85;;
58242;SDS011;50118;53.232;8.252;2022-12-07T00:06:11;17.13;;;6.57;;
58242;SDS011;50118;53.232;8.252;2022-12-07T00:08:38;19.13;;;7.30;;
58242;SDS011;50118;53.232;8.252;2022-12-07T00:11:04;17.15;;;7.07;;
58242;SDS011;50118;53.232;8.252;2022-12-07T00:13:31;16.85;;;6.75;;
58242;SDS011;50118;53.232;8.252;2022-12-07T00:16:05;19.83;;;7.47;;
58242;SDS011;50118;53.232;8.252;2022-12-07T00:18:32;15.73;;;7.03;;
58242;SDS011;50118;53.232;8.252;2022-12-07T00:21:01;16.45;;;6.88;;
58242;SDS011;50118;53.232;8.252;2022-12-07T00:23:36;15.50;;;6.18;;
58242;SDS011;50118;53.232;8.252;2022-12-07T00:26:03;17.83;;;6.55;;
58242;SDS011;50118;53.232;8.252;2022-12-07T00:28:29;16.13;;;6.55;;
58242;SDS011;50118;53.232;8.252;2022-12-07T00:31:05;14.15;;;6.00;;
58242;SDS011;50118;53.232;8.252;2022-12-07T00:33:33;15.93;;;5.95;;
58242;SDS011;50118;53.232;8.252;2022-12-07T00:35:59;13.57;;;5.18;;
58242;SDS011;50118;53.232;8.252;2022-12-07T00:38:26;12.52;;;4.97;;
58242;SDS011;50118;53.232;8.252;2022-12-07T00:40:55;14.18;;;5.70;;
58242;SDS011;50118;53.232;8.252;2022-12-07T00:43:21;11.52;;;4.90;;
58242;SDS011;50118;53.232;8.252;2022-12-07T00:45:47;11.82;;;4.55;;
58242;SDS011;50118;53.232;8.252;2022-12-07T00:48:12;10.80;;;4.47;;
58242;SDS011;50118;53.232;8.252;2022-12-07T00:50:37;11.82;;;4.07;;
58242;SDS011;50118;53.232;8.252;2022-12-07T00:53:03;12.63;;;4.00;;
58242;SDS011;50118;53.232;8.252;2022-12-07T00:55:32;8.25;;;3.50;;
58242;SDS011;50118;53.232;8.252;2022-12-07T00:57:58;10.13;;;3.60;;
58242;SDS011;50118;53.232;8.252;2022-12-07T01:00:23;9.32;;;3.92;;
58242;SDS011;50118;53.232;8.252;2022-12-07T01:02:48;9.15;;;4.03;;
58242;SDS011;50118;53.232;8.252;2022-12-07T01:05:14;9.52;;;4.30;;
58242;SDS011;50118;53.232;8.252;2022-12-07T01:07:39;9.57;;;3.72;;
58242;SDS011;50118;53.232;8.252;2022-12-07T01:10:05;9.73;;;3.60;;
58242;SDS011;50118;53.232;8.252;2022-12-07T01:12:31;13.55;;;4.15;;
58242;SDS011;50118;53.232;8.252;2022-12-07T01:14:56;12.20;;;3.92;;
58242;SDS011;50118;53.232;8.252;2022-12-07T01:17:22;10.32;;;3.95;;
58242;SDS011;50118;53.232;8.252;2022-12-07T01:19:47;13.45;;;4.22;;
58242;SDS011;50118;53.232;8.252;2022-12-07T01:22:12;10.30;;;3.70;;
58242;SDS011;50118;53.232;8.252;2022-12-07T01:24:38;8.85;;;3.38;;
58242;SDS011;50118;53.232;8.252;2022-12-07T01:27:03;10.18;;;4.00;;
58242;SDS011;50118;53.232;8.252;2022-12-07T01:29:28;7.85;;;3.60;;
58242;SDS011;50118;53.232;8.252;2022-12-07T01:31:54;9.45;;;3.72;;
58242;SDS011;50118;53.232;8.252;2022-12-07T01:34:19;8.98;;;3.90;;
58242;SDS011;50118;53.232;8.252;2022-12-07T01:36:45;9.05;;;3.80;;
58242;SDS011;50118;53.232;8.252;2022-12-07T01:39:10;9.40;;;3.47;;
58242;SDS011;50118;53.232;8.252;2022-12-07T01:41:37;9.52;;;3.75;;
58242;SDS011;50118;53.232;8.252;2022-12-07T01:46:43;8.98;;;3.50;;
58242;SDS011;50118;53.232;8.252;2022-12-07T01:49:53;8.35;;;3.38;;
58242;SDS011;50118;53.232;8.252;2022-12-07T01:54:42;13.30;;;4.13;;
58242;SDS011;50118;53.232;8.252;2022-12-07T01:57:09;11.43;;;4.10;;
58242;SDS011;50118;53.232;8.252;2022-12-07T01:59:36;12.68;;;4.20;;
58242;SDS011;50118;53.232;8.252;2022-12-07T02:02:03;8.60;;;4.07;;
58242;SDS011;50118;53.232;8.252;2022-12-07T02:04:35;7.90;;;3.72;;
58242;SDS011;50118;53.232;8.252;2022-12-07T02:07:01;8.35;;;3.90;;
58242;SDS011;50118;53.232;8.252;2022-12-07T02:09:30;12.95;;;4.38;;
58242;SDS011;50118;53.232;8.252;2022-12-07T02:11:55;11.77;;;4.53;;
58242;SDS011;50118;53.232;8.252;2022-12-07T02:14:21;9.70;;;4.05;;
58242;SDS011;50118;53.232;8.252;2022-12-07T02:17:00;11.20;;;4.25;;
58242;SDS011;50118;53.232;8.252;2022-12-07T02:22:18;11.75;;;4.03;;
58242;SDS011;50118;53.232;8.252;2022-12-07T02:24:54;10.30;;;3.38;;
58242;SDS011;50118;53.232;8.252;2022-12-07T02:35:32;9.90;;;5.03;;
58242;SDS011;50118;53.232;8.252;2022-12-07T02:41:25;14.63;;;5.32;;
58242;SDS011;50118;53.232;8.252;2022-12-07T02:44:00;12.30;;;4.78;;
58242;SDS011;50118;53.232;8.252;2022-12-07T02:46:30;13.63;;;4.78;;
58242;SDS011;50118;53.232;8.252;2022-12-07T02:49:00;13.23;;;4.75;;
58242;SDS011;50118;53.232;8.252;2022-12-07T02:51:29;10.43;;;4.35;;
58242;SDS011;50118;53.232;8.252;2022-12-07T02:53:55;11.35;;;4.88;;
58242;SDS011;50118;53.232;8.252;2022-12-07T02:59:20;10.52;;;4.45;;
58242;SDS011;50118;53.232;8.252;2022-12-07T03:15:54;11.20;;;4.38;;
58242;SDS011;50118;53.232;8.252;2022-12-07T03:18:21;13.13;;;4.90;;
58242;SDS011;50118;53.232;8.252;2022-12-07T03:20:49;11.68;;;4.32;;
58242;SDS011;50118;53.232;8.252;2022-12-07T03:23:18;7.78;;;3.80;;
58242;SDS011;50118;53.232;8.252;2022-12-07T03:25:46;10.77;;;3.90;;
58242;SDS011;50118;53.232;8.252;2022-12-07T03:28:16;10.68;;;3.63;;
58242;SDS011;50118;53.232;8.252;2022-12-07T03:30:47;11.77;;;4.10;;
58242;SDS011;50118;53.232;8.252;2022-12-07T03:33:19;10.77;;;3.95;;
58242;SDS011;50118;53.232;8.252;2022-12-07T03:35:52;8.98;;;3.67;;
58242;SDS011;50118;53.232;8.252;2022-12-07T03:38:37;9.55;;;3.53;;
58242;SDS011;50118;53.232;8.252;2022-12-07T03:41:31;9.95;;;3.50;;
58242;SDS011;50118;53.232;8.252;2022-12-07T03:43:57;9.30;;;4.00;;
58242;SDS011;50118;53.232;8.252;2022-12-07T03:51:46;9.85;;;3.83;;
58242;SDS011;50118;53.232;8.252;2022-12-07T03:54:23;8.55;;;3.40;;
58242;SDS011;50118;53.232;8.252;2022-12-07T03:56:58;8.32;;;3.72;;
58242;SDS011;50118;53.232;8.252;2022-12-07T03:59:26;7.97;;;3.30;;
58242;SDS011;50118;53.232;8.252;2022-12-07T04:01:56;7.15;;;3.20;;
58242;SDS011;50118;53.232;8.252;2022-12-07T04:04:26;9.05;;;3.58;;
58242;SDS011;50118;53.232;8.252;2022-12-07T04:06:52;7.35;;;3.42;;
58242;SDS011;50118;53.232;8.252;2022-12-07T04:09:18;8.05;;;3.40;;
58242;SDS011;50118;53.232;8.252;2022-12-07T04:11:43;7.65;;;3.47;;
58242;SDS011;50118;53.232;8.252;2022-12-07T04:14:09;7.60;;;3.35;;
58242;SDS011;50118;53.232;8.252;2022-12-07T04:16:43;8.18;;;3.33;;
58242;SDS011;50118;53.232;8.252;2022-12-07T04:19:23;6.03;;;2.90;;
58242;SDS011;50118;53.232;8.252;2022-12-07T04:21:50;8.02;;;3.08;;
58242;SDS011;50118;53.232;8.252;2022-12-07T04:24:16;8.43;;;3.10;;
58242;SDS011;50118;53.232;8.252;2022-12-07T04:26:42;6.07;;;2.90;;
58242;SDS011;50118;53.232;8.252;2022-12-07T04:29:08;6.72;;;3.00;;
58242;SDS011;50118;53.232;8.252;2022-12-07T04:31:35;6.50;;;2.53;;
58242;SDS011;50118;53.232;8.252;2022-12-07T04:34:01;5.63;;;2.15;;
58242;SDS011;50118;53.232;8.252;2022-12-07T04:36:27;6.90;;;2.70;;
58242;SDS011;50118;53.232;8.252;2022-12-07T04:38:53;7.25;;;2.88;;
58242;SDS011;50118;53.232;8.252;2022-12-07T04:41:20;4.55;;;2.38;;
58242;SDS011;50118;53.232;8.252;2022-12-07T04:43:55;5.72;;;2.40;;
58242;SDS011;50118;53.232;8.252;2022-12-07T04:46:22;5.55;;;2.45;;
58242;SDS011;50118;53.232;8.252;2022-12-07T04:48:49;5.75;;;2.00;;
58242;SDS011;50118;53.232;8.252;2022-12-07T04:51:15;3.75;;;1.50;;
58242;SDS011;50118;53.232;8.252;2022-12-07T04:53:45;4.72;;;1.73;;
58242;SDS011;50118;53.232;8.252;2022-12-07T04:56:10;5.45;;;1.45;;
58242;SDS011;50118;53.232;8.252;2022-12-07T04:58:35;3.75;;;1.15;;
58242;SDS011;50118;53.232;8.252;2022-12-07T05:01:01;4.40;;;1.05;;
58242;SDS011;50118;53.232;8.252;2022-12-07T05:03:26;8.18;;;1.30;;
58242;SDS011;50118;53.232;8.252;2022-12-07T05:05:51;3.80;;;1.13;;
58242;SDS011;50118;53.232;8.252;2022-12-07T05:08:17;3.25;;;1.13;;
58242;SDS011;50118;53.232;8.252;2022-12-07T05:10:42;2.92;;;1.10;;
58242;SDS011;50118;53.232;8.252;2022-12-07T05:13:08;2.70;;;0.93;;
58242;SDS011;50118;53.232;8.252;2022-12-07T05:15:33;6.13;;;1.00;;
58242;SDS011;50118;53.232;8.252;2022-12-07T05:17:58;5.22;;;1.10;;
58242;SDS011;50118;53.232;8.252;2022-12-07T05:20:24;4.18;;;1.00;;
58242;SDS011;50118;53.232;8.252;2022-12-07T05:22:49;4.13;;;1.10;;
58242;SDS011;50118;53.232;8.252;2022-12-07T05:25:15;4.82;;;0.95;;
58242;SDS011;50118;53.232;8.252;2022-12-07T05:27:40;3.47;;;1.05;;
58242;SDS011;50118;53.232;8.252;2022-12-07T05:30:06;3.60;;;0.90;;
58242;SDS011;50118;53.232;8.252;2022-12-07T05:32:32;4.63;;;1.15;;
58242;SDS011;50118;53.232;8.252;2022-12-07T05:34:57;2.50;;;1.10;;
58242;SDS011;50118;53.232;8.252;2022-12-07T05:37:22;5.63;;;1.48;;
58242;SDS011;50118;53.232;8.252;2022-12-07T05:39:48;6.05;;;1.23;;
58242;SDS011;50118;53.232;8.252;2022-12-07T05:42:13;5.32;;;1.13;;
58242;SDS011;50118;53.232;8.252;2022-12-07T05:44:39;4.18;;;1.20;;
58242;SDS011;50118;53.232;8.252;2022-12-07T05:47:06;2.65;;;1.05;;
58242;SDS011;50118;53.232;8.252;2022-12-07T05:49:31;4.15;;;1.23;;
58242;SDS011;50118;53.232;8.252;2022-12-07T05:51:57;3.97;;;1.20;;
58242;SDS011;50118;53.232;8.252;2022-12-07T05:54:22;3.72;;;1.10;;
58242;SDS011;50118;53.232;8.252;2022-12-07T05:56:48;4.25;;;1.10;;
58242;SDS011;50118;53.232;8.252;2022-12-07T05:59:13;4.20;;;1.05;;
58242;SDS011;50118;53.232;8.252;2022-12-07T06:02:09;4.20;;;1.10;;
58242;SDS011;50118;53.232;8.252;2022-12-07T06:04:38;5.18;;;1.30;;
58242;SDS011;50118;53.232;8.252;2022-12-07T06:07:09;2.15;;;1.08;;
58242;SDS011;50118;53.232;8.252;2022-12-07T06:09:35;4.28;;;1.30;;
58242;SDS011;50118;53.232;8.252;2022-12-07T06:12:00;5.82;;;1.42;;
58242;SDS011;50118;53.232;8.252;2022-12-07T06:14:45;6.38;;;1.45;;
58242;SDS011;50118;53.232;8.252;2022-12-07T06:17:11;6.60;;;1.60;;
58242;SDS011;50118;53.232;8.252;2022-12-07T06:19:38;6.78;;;1.40;;
58242;SDS011;50118;53.232;8.252;2022-12-07T06:22:03;5.90;;;1.63;;
58242;SDS011;50118;53.232;8.252;2022-12-07T06:24:29;7.68;;;1.50;;
58242;SDS011;50118;53.232;8.252;2022-12-07T06:26:55;5.85;;;1.40;;
58242;SDS011;50118;53.232;8.252;2022-12-07T06:29:21;4.95;;;1.77;;
58242;SDS011;50118;53.232;8.252;2022-12-07T06:31:47;5.40;;;2.38;;
58242;SDS011;50118;53.232;8.252;2022-12-07T06:34:13;8.88;;;4.18;;
58242;SDS011;50118;53.232;8.252;2022-12-07T06:36:41;6.03;;;1.95;;
58242;SDS011;50118;53.232;8.252;2022-12-07T06:39:07;6.35;;;1.60;;
58242;SDS011;50118;53.232;8.252;2022-12-07T06:41:34;7.93;;;3.05;;
58242;SDS011;50118;53.232;8.252;2022-12-07T06:44:04;15.57;;;7.90;;
58242;SDS011;50118;53.232;8.252;2022-12-07T06:46:30;18.33;;;7.05;;
58242;SDS011;50118;53.232;8.252;2022-12-07T06:48:55;11.85;;;4.30;;
58242;SDS011;50118;53.232;8.252;2022-12-07T06:51:21;10.05;;;2.80;;
58242;SDS011;50118;53.232;8.252;2022-12-07T06:53:47;7.32;;;2.00;;
58242;SDS011;50118;53.232;8.252;2022-12-07T06:56:12;2.28;;;1.23;;
58242;SDS011;50118;53.232;8.252;2022-12-07T06:58:38;4.20;;;1.20;;
58242;SDS011;50118;53.232;8.252;2022-12-07T07:01:08;6.75;;;1.48;;
58242;SDS011;50118;53.232;8.252;2022-12-07T07:03:38;9.38;;;1.52;;
58242;SDS011;50118;53.232;8.252;2022-12-07T07:06:04;5.60;;;1.10;;
58242;SDS011;50118;53.232;8.252;2022-12-07T07:08:30;5.20;;;1.10;;
58242;SDS011;50118;53.232;8.252;2022-12-07T07:10:55;5.70;;;1.17;;
58242;SDS011;50118;53.232;8.252;2022-12-07T07:13:21;5.70;;;1.30;;
58242;SDS011;50118;53.232;8.252;2022-12-07T07:15:46;3.08;;;1.25;;
58242;SDS011;50118;53.232;8.252;2022-12-07T07:18:12;5.68;;;1.70;;
58242;SDS011;50118;53.232;8.252;2022-12-07T07:20:37;4.53;;;2.00;;
58242;SDS011;50118;53.232;8.252;2022-12-07T07:23:03;3.60;;;1.70;;
58242;SDS011;50118;53.232;8.252;2022-12-07T07:25:29;6.70;;;1.98;;
58242;SDS011;50118;53.232;8.252;2022-12-07T07:27:54;7.00;;;1.50;;
58242;SDS011;50118;53.232;8.252;2022-12-07T07:30:20;4.85;;;1.88;;
58242;SDS011;50118;53.232;8.252;2022-12-07T07:32:46;5.10;;;1.70;;
58242;SDS011;50118;53.232;8.252;2022-12-07T07:35:11;6.43;;;1.60;;
58242;SDS011;50118;53.232;8.252;2022-12-07T07:37:39;7.80;;;2.10;;
58242;SDS011;50118;53.232;8.252;2022-12-07T07:40:04;5.07;;;2.00;;
58242;SDS011;50118;53.232;8.252;2022-12-07T07:42:30;5.95;;;2.40;;
58242;SDS011;50118;53.232;8.252;2022-12-07T07:44:56;7.53;;;2.40;;
58242;SDS011;50118;53.232;8.252;2022-12-07T07:47:21;6.15;;;2.10;;
58242;SDS011;50118;53.232;8.252;2022-12-07T07:49:46;5.47;;;2.20;;
58242;SDS011;50118;53.232;8.252;2022-12-07T07:52:12;6.15;;;1.90;;
58242;SDS011;50118;53.232;8.252;2022-12-07T07:54:37;4.93;;;2.08;;
58242;SDS011;50118;53.232;8.252;2022-12-07T07:57:03;4.88;;;2.00;;
58242;SDS011;50118;53.232;8.252;2022-12-07T07:59:28;4.18;;;1.58;;
58242;SDS011;50118;53.232;8.252;2022-12-07T08:01:54;7.40;;;2.13;;
58242;SDS011;50118;53.232;8.252;2022-12-07T08:04:19;5.72;;;1.60;;
58242;SDS011;50118;53.232;8.252;2022-12-07T08:06:45;3.95;;;1.50;;
58242;SDS011;50118;53.232;8.252;2022-12-07T08:09:10;5.60;;;1.60;;
58242;SDS011;50118;53.232;8.252;2022-12-07T08:11:35;2.97;;;1.40;;
58242;SDS011;50118;53.232;8.252;2022-12-07T08:14:01;3.58;;;1.30;;
58242;SDS011;50118;53.232;8.252;2022-12-07T08:16:27;8.48;;;2.05;;
58242;SDS011;50118;53.232;8.252;2022-12-07T08:18:52;4.65;;;1.50;;
58242;SDS011;50118;53.232;8.252;2022-12-07T08:21:18;5.95;;;1.40;;
58242;SDS011;50118;53.232;8.252;2022-12-07T08:23:43;6.18;;;1.60;;
58242;SDS011;50118;53.232;8.252;2022-12-07T08:26:10;4.53;;;2.10;;
58242;SDS011;50118;53.232;8.252;2022-12-07T08:28:36;8.13;;;2.35;;
58242;SDS011;50118;53.232;8.252;2022-12-07T08:31:03;6.10;;;2.30;;
58242;SDS011;50118;53.232;8.252;2022-12-07T08:33:39;4.32;;;2.00;;
58242;SDS011;50118;53.232;8.252;2022-12-07T08:36:05;8.43;;;3.22;;
58242;SDS011;50118;53.232;8.252;2022-12-07T08:38:36;5.10;;;2.42;;
58242;SDS011;50118;53.232;8.252;2022-12-07T08:41:03;5.68;;;2.33;;
58242;SDS011;50118;53.232;8.252;2022-12-07T08:43:29;4.53;;;1.75;;
58242;SDS011;50118;53.232;8.252;2022-12-07T08:48:57;5.15;;;2.35;;
58242;SDS011;50118;53.232;8.252;2022-12-07T08:51:26;6.18;;;2.58;;
58242;SDS011;50118;53.232;8.252;2022-12-07T08:53:52;6.75;;;2.03;;
58242;SDS011;50118;53.232;8.252;2022-12-07T08:56:20;6.85;;;2.05;;
58242;SDS011;50118;53.232;8.252;2022-12-07T08:58:46;5.90;;;2.20;;
58242;SDS011;50118;53.232;8.252;2022-12-07T09:01:12;7.38;;;2.40;;
58242;SDS011;50118;53.232;8.252;2022-12-07T09:03:37;8.65;;;2.78;;
58242;SDS011;50118;53.232;8.252;2022-12-07T09:06:03;9.55;;;2.80;;
58242;SDS011;50118;53.232;8.252;2022-12-07T09:08:40;5.28;;;2.28;;
58242;SDS011;50118;53.232;8.252;2022-12-07T09:11:09;7.05;;;2.30;;
58242;SDS011;50118;53.232;8.252;2022-12-07T09:13:34;6.57;;;2.20;;
58242;SDS011;50118;53.232;8.252;2022-12-07T09:16:00;6.65;;;2.05;;
58242;SDS011;50118;53.232;8.252;2022-12-07T09:18:26;6.72;;;2.20;;
58242;SDS011;50118;53.232;8.252;2022-12-07T09:20:51;7.18;;;2.20;;
58242;SDS011;50118;53.232;8.252;2022-12-07T09:23:16;6.65;;;2.30;;
58242;SDS011;50118;53.232;8.252;2022-12-07T09:25:42;6.55;;;2.33;;
58242;SDS011;50118;53.232;8.252;2022-12-07T09:28:07;6.70;;;1.92;;
58242;SDS011;50118;53.232;8.252;2022-12-07T09:30:33;7.40;;;2.58;;
58242;SDS011;50118;53.232;8.252;2022-12-07T09:32:59;6.93;;;2.30;;
58242;SDS011;50118;53.232;8.252;2022-12-07T09:35:24;7.25;;;3.00;;
58242;SDS011;50118;53.232;8.252;2022-12-07T09:37:50;6.32;;;2.35;;
58242;SDS011;50118;53.232;8.252;2022-12-07T09:40:16;8.25;;;2.55;;
58242;SDS011;50118;53.232;8.252;2022-12-07T09:42:45;6.00;;;2.28;;
58242;SDS011;50118;53.232;8.252;2022-12-07T09:45:15;7.50;;;2.40;;
58242;SDS011;50118;53.232;8.252;2022-12-07T09:47:44;8.45;;;2.50;;
58242;SDS011;50118;53.232;8.252;2022-12-07T09:50:20;9.77;;;3.85;;
58242;SDS011;50118;53.232;8.252;2022-12-07T09:52:49;7.63;;;3.03;;
58242;SDS011;50118;53.232;8.252;2022-12-07T09:55:19;8.35;;;2.67;;
58242;SDS011;50118;53.232;8.252;2022-12-07T09:57:49;7.70;;;2.20;;
58242;SDS011;50118;53.232;8.252;2022-12-07T10:00:17;6.13;;;1.80;;
58242;SDS011;50118;53.232;8.252;2022-12-07T10:02:46;3.97;;;1.75;;
58242;SDS011;50118;53.232;8.252;2022-12-07T10:05:18;6.70;;;2.00;;
58242;SDS011;50118;53.232;8.252;2022-12-07T10:07:47;5.75;;;2.08;;
58242;SDS011;50118;53.232;8.252;2022-12-07T10:10:14;5.20;;;1.65;;
58242;SDS011;50118;53.232;8.252;2022-12-07T10:12:57;6.15;;;1.52;;
58242;SDS011;50118;53.232;8.252;2022-12-07T10:15:42;8.20;;;1.80;;
58242;SDS011;50118;53.232;8.252;2022-12-07T10:18:47;7.32;;;1.80;;
58242;SDS011;50118;53.232;8.252;2022-12-07T10:26:34;5.32;;;1.40;;
58242;SDS011;50118;53.232;8.252;2022-12-07T10:29:26;5.13;;;1.30;;
58242;SDS011;50118;53.232;8.252;2022-12-07T10:31:54;13.93;;;5.20;;
58242;SDS011;50118;53.232;8.252;2022-12-07T10:34:24;7.72;;;2.20;;
58242;SDS011;50118;53.232;8.252;2022-12-07T10:36:51;4.60;;;1.40;;
58242;SDS011;50118;53.232;8.252;2022-12-07T10:39:19;6.53;;;1.38;;
58242;SDS011;50118;53.232;8.252;2022-12-07T10:41:59;7.63;;;2.40;;
58242;SDS011;50118;53.232;8.252;2022-12-07T10:44:30;5.38;;;1.23;;
58242;SDS011;50118;53.232;8.252;2022-12-07T10:52:18;4.05;;;1.40;;
58242;SDS011;50118;53.232;8.252;2022-12-07T10:57:51;3.17;;;1.15;;
58242;SDS011;50118;53.232;8.252;2022-12-07T11:00:25;5.97;;;1.33;;
58242;SDS011;50118;53.232;8.252;2022-12-07T11:05:50;5.80;;;1.15;;
58242;SDS011;50118;53.232;8.252;2022-12-07T11:17:00;5.30;;;1.25;;
58242;SDS011;50118;53.232;8.252;2022-12-07T11:19:28;4.20;;;1.65;;
58242;SDS011;50118;53.232;8.252;2022-12-07T11:22:15;3.72;;;1.10;;
58242;SDS011;50118;53.232;8.252;2022-12-07T11:30:17;3.17;;;1.00;;
58242;SDS011;50118;53.232;8.252;2022-12-07T11:38:15;3.53;;;1.30;;
58242;SDS011;50118;53.232;8.252;2022-12-07T11:40:44;3.40;;;1.30;;
58242;SDS011;50118;53.232;8.252;2022-12-07T11:46:00;7.28;;;1.52;;
58242;SDS011;50118;53.232;8.252;2022-12-07T11:48:32;6.55;;;1.30;;
58242;SDS011;50118;53.232;8.252;2022-12-07T11:51:03;5.28;;;1.00;;
58242;SDS011;50118;53.232;8.252;2022-12-07T11:56:02;6.07;;;1.50;;
58242;SDS011;50118;53.232;8.252;2022-12-07T12:03:48;6.82;;;1.50;;
58242;SDS011;50118;53.232;8.252;2022-12-07T12:06:16;7.68;;;1.48;;
58242;SDS011;50118;53.232;8.252;2022-12-07T12:14:16;4.72;;;1.17;;
58242;SDS011;50118;53.232;8.252;2022-12-07T12:16:55;10.30;;;1.63;;
58242;SDS011;50118;53.232;8.252;2022-12-07T12:19:42;6.85;;;1.65;;
58242;SDS011;50118;53.232;8.252;2022-12-07T12:22:15;6.78;;;1.83;;
58242;SDS011;50118;53.232;8.252;2022-12-07T12:24:47;6.93;;;1.60;;
58242;SDS011;50118;53.232;8.252;2022-12-07T12:27:26;6.10;;;2.47;;
58242;SDS011;50118;53.232;8.252;2022-12-07T12:29:56;9.45;;;2.70;;
58242;SDS011;50118;53.232;8.252;2022-12-07T12:32:41;4.57;;;1.55;;
58242;SDS011;50118;53.232;8.252;2022-12-07T12:37:57;7.68;;;2.15;;
58242;SDS011;50118;53.232;8.252;2022-12-07T12:40:53;5.95;;;1.40;;
58242;SDS011;50118;53.232;8.252;2022-12-07T12:51:52;9.00;;;2.00;;
58242;SDS011;50118;53.232;8.252;2022-12-07T12:59:35;7.63;;;3.60;;
58242;SDS011;50118;53.232;8.252;2022-12-07T13:04:57;3.08;;;0.88;;
58242;SDS011;50118;53.232;8.252;2022-12-07T13:10:27;5.35;;;1.45;;
58242;SDS011;50118;53.232;8.252;2022-12-07T13:21:01;5.88;;;1.20;;
58242;SDS011;50118;53.232;8.252;2022-12-07T13:26:16;4.43;;;1.30;;
58242;SDS011;50118;53.232;8.252;2022-12-07T13:28:43;7.63;;;1.95;;
58242;SDS011;50118;53.232;8.252;2022-12-07T13:31:12;12.55;;;5.03;;
58242;SDS011;50118;53.232;8.252;2022-12-07T13:33:38;8.68;;;3.50;;
58242;SDS011;50118;53.232;8.252;2022-12-07T13:36:04;8.75;;;2.28;;
58242;SDS011;50118;53.232;8.252;2022-12-07T13:38:36;5.05;;;1.50;;
58242;SDS011;50118;53.232;8.252;2022-12-07T13:41:14;7.63;;;2.55;;
58242;SDS011;50118;53.232;8.252;2022-12-07T13:43:52;5.32;;;1.90;;
58242;SDS011;50118;53.232;8.252;2022-12-07T13:46:40;6.88;;;3.40;;
58242;SDS011;50118;53.232;8.252;2022-12-07T13:51:52;9.63;;;2.85;;
58242;SDS011;50118;53.232;8.252;2022-12-07T13:54:18;13.85;;;5.32;;
58242;SDS011;50118;53.232;8.252;2022-12-07T13:56:47;27.85;;;11.70;;
58242;SDS011;50118;53.232;8.252;2022-12-07T13:59:16;18.27;;;8.38;;
58242;SDS011;50118;53.232;8.252;2022-12-07T14:01:48;15.52;;;6.75;;
58242;SDS011;50118;53.232;8.252;2022-12-07T14:07:01;5.95;;;2.38;;
58242;SDS011;50118;53.232;8.252;2022-12-07T14:09:52;3.15;;;1.40;;
58242;SDS011;50118;53.232;8.252;2022-12-07T14:12:23;3.78;;;1.30;;
58242;SDS011;50118;53.232;8.252;2022-12-07T14:14:50;3.33;;;1.20;;
58242;SDS011;50118;53.232;8.252;2022-12-07T14:17:20;5.43;;;2.22;;
58242;SDS011;50118;53.232;8.252;2022-12-07T14:19:51;5.80;;;2.10;;
58242;SDS011;50118;53.232;8.252;2022-12-07T14:22:29;4.32;;;2.40;;
58242;SDS011;50118;53.232;8.252;2022-12-07T14:27:38;5.28;;;2.08;;
58242;SDS011;50118;53.232;8.252;2022-12-07T14:30:15;6.05;;;1.90;;
58242;SDS011;50118;53.232;8.252;2022-12-07T14:32:41;8.73;;;2.58;;
58242;SDS011;50118;53.232;8.252;2022-12-07T14:35:09;9.77;;;3.30;;
58242;SDS011;50118;53.232;8.252;2022-12-07T14:37:37;5.28;;;2.25;;
58242;SDS011;50118;53.232;8.252;2022-12-07T14:40:05;8.32;;;2.10;;
58242;SDS011;50118;53.232;8.252;2022-12-07T14:42:31;6.07;;;2.00;;
58242;SDS011;50118;53.232;8.252;2022-12-07T14:44:57;6.93;;;2.38;;
58242;SDS011;50118;53.232;8.252;2022-12-07T14:47:24;6.85;;;1.90;;
58242;SDS011;50118;53.232;8.252;2022-12-07T14:49:50;6.80;;;2.30;;
58242;SDS011;50118;53.232;8.252;2022-12-07T14:52:17;14.25;;;8.23;;
58242;SDS011;50118;53.232;8.252;2022-12-07T14:54:45;7.70;;;3.78;;
58242;SDS011;50118;53.232;8.252;2022-12-07T14:57:11;5.45;;;1.90;;
58242;SDS011;50118;53.232;8.252;2022-12-07T14:59:36;6.88;;;1.90;;
58242;SDS011;50118;53.232;8.252;2022-12-07T15:02:02;3.65;;;1.30;;
58242;SDS011;50118;53.232;8.252;2022-12-07T15:04:27;3.80;;;1.15;;
58242;SDS011;50118;53.232;8.252;2022-12-07T15:07:00;3.42;;;1.30;;
58242;SDS011;50118;53.232;8.252;2022-12-07T15:09:27;7.28;;;1.42;;
58242;SDS011;50118;53.232;8.252;2022-12-07T15:11:53;4.65;;;1.92;;
58242;SDS011;50118;53.232;8.252;2022-12-07T15:14:18;4.50;;;2.65;;
58242;SDS011;50118;53.232;8.252;2022-12-07T15:16:44;4.97;;;2.30;;
58242;SDS011;50118;53.232;8.252;2022-12-07T15:19:10;5.63;;;2.85;;
58242;SDS011;50118;53.232;8.252;2022-12-07T15:21:39;4.00;;;1.90;;
58242;SDS011;50118;53.232;8.252;2022-12-07T15:24:04;7.13;;;1.80;;
58242;SDS011;50118;53.232;8.252;2022-12-07T15:26:30;5.55;;;1.50;;
58242;SDS011;50118;53.232;8.252;2022-12-07T15:28:56;6.78;;;1.63;;
58242;SDS011;50118;53.232;8.252;2022-12-07T15:31:22;5.82;;;2.00;;
58242;SDS011;50118;53.232;8.252;2022-12-07T15:33:47;7.10;;;2.80;;
58242;SDS011;50118;53.232;8.252;2022-12-07T15:36:20;6.57;;;3.00;;
58242;SDS011;50118;53.232;8.252;2022-12-07T15:38:47;8.65;;;3.20;;
58242;SDS011;50118;53.232;8.252;2022-12-07T15:41:13;5.45;;;2.60;;
58242;SDS011;50118;53.232;8.252;2022-12-07T15:43:38;6.28;;;2.00;;
58242;SDS011;50118;53.232;8.252;2022-12-07T15:46:23;4.28;;;1.67;;
58242;SDS011;50118;53.232;8.252;2022-12-07T15:48:48;4.10;;;1.50;;
58242;SDS011;50118;53.232;8.252;2022-12-07T15:51:13;5.80;;;1.55;;
58242;SDS011;50118;53.232;8.252;2022-12-07T15:53:39;5.38;;;1.70;;
58242;SDS011;50118;53.232;8.252;2022-12-07T15:56:08;6.60;;;3.25;;
58242;SDS011;50118;53.232;8.252;2022-12-07T15:58:33;11.30;;;6.82;;
58242;SDS011;50118;53.232;8.252;2022-12-07T16:00:59;30.23;;;12.45;;
58242;SDS011;50118;53.232;8.252;2022-12-07T16:03:26;8.13;;;2.15;;
58242;SDS011;50118;53.232;8.252;2022-12-07T16:05:52;6.20;;;2.03;;
58242;SDS011;50118;53.232;8.252;2022-12-07T16:08:18;7.68;;;2.50;;
58242;SDS011;50118;53.232;8.252;2022-12-07T16:10:43;8.68;;;2.70;;
58242;SDS011;50118;53.232;8.252;2022-12-07T16:13:09;3.28;;;1.65;;
58242;SDS011;50118;53.232;8.252;2022-12-07T16:15:41;7.32;;;3.45;;
58242;SDS011;50118;53.232;8.252;2022-12-07T16:18:07;3.95;;;1.60;;
58242;SDS011;50118;53.232;8.252;2022-12-07T16:20:33;8.80;;;4.00;;
58242;SDS011;50118;53.232;8.252;2022-12-07T16:22:58;3.47;;;2.40;;
58242;SDS011;50118;53.232;8.252;2022-12-07T16:25:24;6.45;;;3.33;;
58242;SDS011;50118;53.232;8.252;2022-12-07T16:27:52;13.05;;;7.15;;
58242;SDS011;50118;53.232;8.252;2022-12-07T16:30:18;6.90;;;3.08;;
58242;SDS011;50118;53.232;8.252;2022-12-07T16:32:44;1.38;;;0.95;;
58242;SDS011;50118;53.232;8.252;2022-12-07T16:35:10;3.45;;;1.60;;
58242;SDS011;50118;53.232;8.252;2022-12-07T16:37:36;4.97;;;2.10;;
58242;SDS011;50118;53.232;8.252;2022-12-07T16:40:02;6.25;;;2.50;;
58242;SDS011;50118;53.232;8.252;2022-12-07T16:42:31;3.83;;;1.90;;
58242;SDS011;50118;53.232;8.252;2022-12-07T16:44:57;27.70;;;12.60;;
58242;SDS011;50118;53.232;8.252;2022-12-07T16:47:22;8.55;;;3.72;;
58242;SDS011;50118;53.232;8.252;2022-12-07T16:49:50;5.63;;;2.40;;
58242;SDS011;50118;53.232;8.252;2022-12-07T16:52:17;17.58;;;9.88;;
58242;SDS011;50118;53.232;8.252;2022-12-07T16:54:42;11.57;;;6.18;;
58242;SDS011;50118;53.232;8.252;2022-12-07T16:57:08;12.18;;;7.50;;
58242;SDS011;50118;53.232;8.252;2022-12-07T16:59:33;14.82;;;7.68;;
58242;SDS011;50118;53.232;8.252;2022-12-07T17:01:59;11.15;;;5.50;;
58242;SDS011;50118;53.232;8.252;2022-12-07T17:04:24;8.82;;;4.57;;
58242;SDS011;50118;53.232;8.252;2022-12-07T17:06:50;3.65;;;2.13;;
58242;SDS011;50118;53.232;8.252;2022-12-07T17:09:15;6.25;;;2.60;;
58242;SDS011;50118;53.232;8.252;2022-12-07T17:11:42;5.32;;;2.90;;